Gordon Reid — CGBR — position and weather

sailwx.info

Track history (hours):
 
Tides and Currents Weather Stations Pressure Air Temp Water Temp Dewpoint Dewpoint Depression Visibility Wind Speed Wind Dir Waves Ship Positions

Gordon Reid

Last reported at 2015-Aug-15 13:29 UTC. Time now 2015-Sep-03 02:29 UTC.
Position N 50°55' W 127°21'.
Warning: this ship's position is 18 days out of date.

Length 49.95 m; beam 11 m; draft 5.4 m.

Type: SAR. MMSI: 316094000.

Date/timePositionNaut miles runAvg speedWind from/ knotsBaromVisibWave heightAir tempDewpointWater temp
2015-Aug-15 13:29N 50°55' W 127°21'0 0.0
2015-Aug-15 12:29N 50°55' W 127°21'0 0.0
2015-Aug-15 11:23N 50°55' W 127°21'0 0.0
2015-Aug-15 10:29N 50°55' W 127°21'0 0.0
2015-Aug-15 09:23N 50°55' W 127°21'0 0.0
2015-Aug-15 08:29N 50°55' W 127°21'0 0.0
2015-Aug-15 07:29N 50°55' W 127°21'0 0.0
2015-Aug-15 06:23N 50°55' W 127°21'0 0.0
2015-Aug-15 05:29N 50°55' W 127°21'0 0.0
2015-Aug-15 04:29N 50°55' W 127°21'0 0.0
2015-Aug-15 03:29N 50°55' W 127°21'0 0.0
2015-Aug-15 02:23N 50°55' W 127°21'0 0.0
2015-Aug-15 01:29N 50°55' W 127°21'0 0.0
2015-Aug-15 00:29N 50°55' W 127°21'0 0.0
2015-Aug-14 23:29N 50°55' W 127°21'0 0.0
2015-Aug-14 22:29N 50°55' W 127°21'0 0.0
2015-Aug-14 21:29N 50°55' W 127°21'0 0.0
2015-Aug-14 20:29N 50°55' W 127°21'0 0.0
2015-Aug-14 19:29N 50°55' W 127°21'0 0.0
2015-Aug-14 18:29N 50°55' W 127°21'0 0.0
2015-Aug-14 17:29N 50°55' W 127°21'0 0.0
2015-Aug-14 16:17N 50°55' W 127°21'0 0.0
2015-Aug-14 15:29N 50°55' W 127°21'0 0.0
2015-Aug-14 14:29N 50°55' W 127°21'0 0.0
2015-Aug-14 13:29N 50°55' W 127°21'0 0.0
2015-Aug-14 12:17N 50°55' W 127°21'0 0.0
2015-Aug-14 11:23N 50°55' W 127°21'0 0.0
2015-Aug-14 10:29N 50°55' W 127°21'0 0.0
2015-Aug-14 09:29N 50°55' W 127°21'0 0.0
2015-Aug-14 08:29N 50°55' W 127°21'0 0.0
2015-Aug-14 07:23N 50°55' W 127°21'0 0.0
2015-Aug-14 06:29N 50°55' W 127°21'0 0.0
2015-Aug-14 04:23N 50°55' W 127°21'0 0.0
2015-Aug-14 03:29N 50°55' W 127°21'2 2.0
2015-Aug-14 02:34N 50°53' W 127°22'1110.1
2015-Aug-14 01:31N 50°44' W 127°29'0 0.4
2015-Aug-14 00:33N 50°43' W 127°29'0 0.0
2015-Aug-13 23:33N 50°43' W 127°29'0 0.0
2015-Aug-13 22:33N 50°43' W 127°29'0 0.0
2015-Aug-13 21:33N 50°43' W 127°29'0 0.0
2015-Aug-13 20:33N 50°43' W 127°29'0 0.0
2015-Aug-13 19:33N 50°43' W 127°29'0 0.0
2015-Aug-13 18:33N 50°43' W 127°29'0 0.0
2015-Aug-13 17:27N 50°43' W 127°29'0 0.0
2015-Aug-13 16:21N 50°43' W 127°29'0 0.0
2015-Aug-13 15:27N 50°43' W 127°29'0 0.0
2015-Aug-13 14:27N 50°43' W 127°29'0 0.0
2015-Aug-13 13:33N 50°43' W 127°29'0 0.0
2015-Aug-13 12:33N 50°43' W 127°29'0 0.0
2015-Aug-13 09:15N 50°43' W 127°29'0 0.0
2015-Aug-13 08:33N 50°43' W 127°29'0 0.0
2015-Aug-13 07:21N 50°43' W 127°29'0 0.0
2015-Aug-13 06:33N 50°43' W 127°29'0 0.0
2015-Aug-13 04:33N 50°43' W 127°29'0 0.0
2015-Aug-13 03:33N 50°43' W 127°29'0 0.0
2015-Aug-13 02:27N 50°43' W 127°29'0 0.0
2015-Aug-12 23:21N 50°43' W 127°29'0 0.0
2015-Aug-12 22:33N 50°43' W 127°29'0 0.0
2015-Aug-12 21:33N 50°43' W 127°29'0 0.0
2015-Aug-12 20:33N 50°43' W 127°29'0 0.0
2015-Aug-12 19:33N 50°43' W 127°29'1 0.5
2015-Aug-12 18:33N 50°44' W 127°28'1 0.7
2015-Aug-12 17:31N 50°43' W 127°28'0 0.0
2015-Aug-12 16:31N 50°43' W 127°28'0 0.0
2015-Aug-12 15:33N 50°43' W 127°28'5 5.5
2015-Aug-12 14:33N 50°48' W 127°33'1211.8
2015-Aug-12 13:32N 50°52' W 127°51'1 0.8
2015-Aug-12 12:29N 50°52' W 127°52'0 0.0
2015-Aug-12 11:17N 50°52' W 127°52'0 0.0
2015-Aug-12 10:29N 50°52' W 127°52'0 0.0
2015-Aug-12 09:29N 50°52' W 127°52'0 0.0
2015-Aug-12 08:29N 50°52' W 127°52'0 0.0
2015-Aug-12 07:29N 50°52' W 127°52'0 0.0
2015-Aug-12 06:29N 50°52' W 127°52'0 0.1
2015-Aug-12 04:34N 50°51' W 127°52'0 0.0
2015-Aug-12 03:22N 50°51' W 127°52'0 0.0
2015-Aug-12 02:28N 50°51' W 127°52'0 0.0
2015-Aug-12 01:28N 50°51' W 127°52'0 0.0
2015-Aug-12 00:22N 50°51' W 127°52'0 0.0
2015-Aug-11 23:34N 50°51' W 127°52'0 0.0
2015-Aug-11 22:28N 50°51' W 127°52'0 0.0
2015-Aug-11 21:22N 50°51' W 127°52'0 0.0
2015-Aug-11 20:16N 50°51' W 127°52'  
Track history (hours):
 
Tides and Currents Weather Stations Pressure Air Temp Water Temp Dewpoint Dewpoint Depression Visibility Wind Speed Wind Dir Waves Ship Positions

Gordon Reid

Last reported at 2015-Aug-15 13:29 UTC. Time now 2015-Sep-03 02:29 UTC.
Position N 50°55' W 127°21'.
Warning: this ship's position is 18 days out of date.

Length 49.95 m; beam 11 m; draft 5.4 m.

Type: SAR. MMSI: 316094000.

Date/timePositionNaut miles runAvg speedWind from/ knotsBaromVisibWave heightAir tempDewpointWater temp
2015-Aug-15 13:29N 50°55' W 127°21'0 0.0
2015-Aug-15 12:29N 50°55' W 127°21'0 0.0
2015-Aug-15 11:23N 50°55' W 127°21'0 0.0
2015-Aug-15 10:29N 50°55' W 127°21'0 0.0
2015-Aug-15 09:23N 50°55' W 127°21'0 0.0
2015-Aug-15 08:29N 50°55' W 127°21'0 0.0
2015-Aug-15 07:29N 50°55' W 127°21'0 0.0
2015-Aug-15 06:23N 50°55' W 127°21'0 0.0
2015-Aug-15 05:29N 50°55' W 127°21'0 0.0
2015-Aug-15 04:29N 50°55' W 127°21'0 0.0
2015-Aug-15 03:29N 50°55' W 127°21'0 0.0
2015-Aug-15 02:23N 50°55' W 127°21'0 0.0
2015-Aug-15 01:29N 50°55' W 127°21'0 0.0
2015-Aug-15 00:29N 50°55' W 127°21'0 0.0
2015-Aug-14 23:29N 50°55' W 127°21'0 0.0
2015-Aug-14 22:29N 50°55' W 127°21'0 0.0
2015-Aug-14 21:29N 50°55' W 127°21'0 0.0
2015-Aug-14 20:29N 50°55' W 127°21'0 0.0
2015-Aug-14 19:29N 50°55' W 127°21'0 0.0
2015-Aug-14 18:29N 50°55' W 127°21'0 0.0
2015-Aug-14 17:29N 50°55' W 127°21'0 0.0
2015-Aug-14 16:17N 50°55' W 127°21'0 0.0
2015-Aug-14 15:29N 50°55' W 127°21'0 0.0
2015-Aug-14 14:29N 50°55' W 127°21'0 0.0
2015-Aug-14 13:29N 50°55' W 127°21'0 0.0
2015-Aug-14 12:17N 50°55' W 127°21'0 0.0
2015-Aug-14 11:23N 50°55' W 127°21'0 0.0
2015-Aug-14 10:29N 50°55' W 127°21'0 0.0
2015-Aug-14 09:29N 50°55' W 127°21'0 0.0
2015-Aug-14 08:29N 50°55' W 127°21'0 0.0
2015-Aug-14 07:23N 50°55' W 127°21'0 0.0
2015-Aug-14 06:29N 50°55' W 127°21'0 0.0
2015-Aug-14 04:23N 50°55' W 127°21'0 0.0
2015-Aug-14 03:29N 50°55' W 127°21'2 2.0
2015-Aug-14 02:34N 50°53' W 127°22'1110.1
2015-Aug-14 01:31N 50°44' W 127°29'0 0.4
2015-Aug-14 00:33N 50°43' W 127°29'0 0.0
2015-Aug-13 23:33N 50°43' W 127°29'0 0.0
2015-Aug-13 22:33N 50°43' W 127°29'0 0.0
2015-Aug-13 21:33N 50°43' W 127°29'0 0.0
2015-Aug-13 20:33N 50°43' W 127°29'0 0.0
2015-Aug-13 19:33N 50°43' W 127°29'0 0.0
2015-Aug-13 18:33N 50°43' W 127°29'0 0.0
2015-Aug-13 17:27N 50°43' W 127°29'0 0.0
2015-Aug-13 16:21N 50°43' W 127°29'0 0.0
2015-Aug-13 15:27N 50°43' W 127°29'0 0.0
2015-Aug-13 14:27N 50°43' W 127°29'0 0.0
2015-Aug-13 13:33N 50°43' W 127°29'0 0.0
2015-Aug-13 12:33N 50°43' W 127°29'0 0.0
2015-Aug-13 09:15N 50°43' W 127°29'0 0.0
2015-Aug-13 08:33N 50°43' W 127°29'0 0.0
2015-Aug-13 07:21N 50°43' W 127°29'0 0.0
2015-Aug-13 06:33N 50°43' W 127°29'0 0.0
2015-Aug-13 04:33N 50°43' W 127°29'0 0.0
2015-Aug-13 03:33N 50°43' W 127°29'0 0.0
2015-Aug-13 02:27N 50°43' W 127°29'0 0.0
2015-Aug-12 23:21N 50°43' W 127°29'0 0.0
2015-Aug-12 22:33N 50°43' W 127°29'0 0.0
2015-Aug-12 21:33N 50°43' W 127°29'0 0.0
2015-Aug-12 20:33N 50°43' W 127°29'0 0.0
2015-Aug-12 19:33N 50°43' W 127°29'1 0.5
2015-Aug-12 18:33N 50°44' W 127°28'1 0.7
2015-Aug-12 17:31N 50°43' W 127°28'0 0.0
2015-Aug-12 16:31N 50°43' W 127°28'0 0.0
2015-Aug-12 15:33N 50°43' W 127°28'5 5.5
2015-Aug-12 14:33N 50°48' W 127°33'1211.8
2015-Aug-12 13:32N 50°52' W 127°51'1 0.8
2015-Aug-12 12:29N 50°52' W 127°52'0 0.0
2015-Aug-12 11:17N 50°52' W 127°52'0 0.0
2015-Aug-12 10:29N 50°52' W 127°52'0 0.0
2015-Aug-12 09:29N 50°52' W 127°52'0 0.0
2015-Aug-12 08:29N 50°52' W 127°52'0 0.0
2015-Aug-12 07:29N 50°52' W 127°52'0 0.0
2015-Aug-12 06:29N 50°52' W 127°52'0 0.1
2015-Aug-12 04:34N 50°51' W 127°52'0 0.0
2015-Aug-12 03:22N 50°51' W 127°52'0 0.0
2015-Aug-12 02:28N 50°51' W 127°52'0 0.0
2015-Aug-12 01:28N 50°51' W 127°52'0 0.0
2015-Aug-12 00:22N 50°51' W 127°52'0 0.0
2015-Aug-11 23:34N 50°51' W 127°52'0 0.0
2015-Aug-11 22:28N 50°51' W 127°52'0 0.0
2015-Aug-11 21:22N 50°51' W 127°52'0 0.0
2015-Aug-11 20:16N 50°51' W 127°52'  

Dump ship's entire track history